Time;durP1;ratioP1;P1;durP2;ratioP2;P2;SDS_P1;SDS_P2;PMS_P1;PMS_P2;Temp;Humidity;BMP_temperature;BMP_pressure;BME280_temperature;BME280_humidity;BME280_pressure;Samples;Min_cycle;Max_cycle;Signal;HPM_P1;HPM_P2
2021/03/22 00:01:57;;;;;;;25.53;4.73;;;6.10;99.90;;;;;;5115265;28;20997;-66
2021/03/22 00:04:24;;;;;;;22.03;4.73;;;6.10;99.90;;;;;;5100653;28;20481;-66
2021/03/22 00:06:50;;;;;;;30.13;5.77;;;6.10;99.90;;;;;;5094195;28;20488;-66
2021/03/22 00:09:17;;;;;;;26.10;5.70;;;6.00;99.90;;;;;;5095167;28;20449;-65
2021/03/22 00:11:43;;;;;;;14.70;3.93;;;5.90;99.90;;;;;;5099860;28;20450;-65
2021/03/22 00:14:09;;;;;;;22.60;3.70;;;5.90;99.90;;;;;;5114496;28;20488;-65
2021/03/22 00:16:36;;;;;;;17.43;3.73;;;5.80;99.90;;;;;;5114263;28;20535;-65
2021/03/22 00:19:02;;;;;;;19.73;3.53;;;5.90;99.90;;;;;;5114935;28;20551;-66
2021/03/22 00:21:29;;;;;;;18.43;4.17;;;5.90;99.90;;;;;;5114326;28;20453;-66
2021/03/22 00:23:56;;;;;;;20.87;4.23;;;5.90;99.90;;;;;;5114471;28;20456;-66
2021/03/22 00:26:22;;;;;;;17.60;3.80;;;5.90;99.90;;;;;;5111612;28;20459;-66
2021/03/22 00:28:49;;;;;;;18.77;4.60;;;5.90;99.90;;;;;;5099421;28;20489;-65
2021/03/22 00:31:16;;;;;;;20.20;3.40;;;6.00;99.90;;;;;;5106512;28;20530;-66
2021/03/22 00:33:43;;;;;;;26.20;3.53;;;6.00;99.90;;;;;;5113643;28;20579;-65
2021/03/22 00:36:10;;;;;;;20.17;4.17;;;6.00;99.90;;;;;;5100194;28;20698;-65
2021/03/22 00:38:38;;;;;;;21.53;4.33;;;6.10;99.90;;;;;;5094089;28;20446;-65
2021/03/22 00:41:04;;;;;;;17.57;4.20;;;6.00;99.90;;;;;;5108854;28;20607;-65
2021/03/22 00:43:31;;;;;;;21.83;3.53;;;6.10;99.90;;;;;;5104424;28;20448;-66
2021/03/22 00:46:01;;;;;;;17.30;3.27;;;6.10;99.90;;;;;;5105100;28;20556;-65
2021/03/22 00:48:28;;;;;;;17.93;3.70;;;6.00;99.90;;;;;;5119836;27;20477;-64
2021/03/22 00:50:55;;;;;;;14.10;3.27;;;6.00;99.90;;;;;;5113681;28;20876;-65
2021/03/22 00:53:22;;;;;;;14.67;2.97;;;5.90;99.90;;;;;;5107092;28;20500;-66
2021/03/22 00:55:50;;;;;;;20.30;3.77;;;5.80;99.90;;;;;;5093701;28;20473;-64
2021/03/22 00:58:17;;;;;;;26.57;4.20;;;5.80;99.90;;;;;;5098400;28;20447;-66
2021/03/22 01:00:46;;;;;;;22.43;4.53;;;5.70;99.90;;;;;;5099833;28;20454;-65
2021/03/22 01:03:15;;;;;;;19.23;3.30;;;5.60;99.90;;;;;;5113683;28;20536;-64
2021/03/22 01:05:42;;;;;;;19.47;3.80;;;5.60;99.90;;;;;;5113906;28;20585;-65
2021/03/22 01:08:10;;;;;;;18.83;3.50;;;5.50;99.90;;;;;;5110389;28;20532;-65
2021/03/22 01:10:40;;;;;;;26.37;5.70;;;5.40;99.90;;;;;;5104891;28;20548;-65
2021/03/22 01:13:11;;;;;;;19.63;3.90;;;5.30;99.90;;;;;;5107178;28;20449;-65
2021/03/22 01:15:37;;;;;;;14.50;3.27;;;5.20;99.90;;;;;;5099234;28;20452;-65
2021/03/22 01:18:05;;;;;;;26.57;3.90;;;5.20;99.90;;;;;;5114080;28;20543;-66
2021/03/22 01:20:35;;;;;;;23.83;3.47;;;5.20;99.90;;;;;;5113117;28;20536;-65
2021/03/22 01:23:02;;;;;;;18.10;3.60;;;5.30;99.90;;;;;;5113249;28;20448;-66
2021/03/22 01:25:28;;;;;;;21.70;3.57;;;5.40;99.90;;;;;;5095733;28;20451;-66
2021/03/22 01:27:55;;;;;;;23.90;4.37;;;5.50;99.90;;;;;;5093040;28;20842;-65
2021/03/22 01:30:26;;;;;;;16.40;2.87;;;5.50;99.90;;;;;;5109216;28;20529;-66
2021/03/22 01:32:53;;;;;;;17.53;3.50;;;5.60;99.90;;;;;;5113700;28;20452;-64
2021/03/22 01:35:19;;;;;;;17.83;3.50;;;5.70;99.90;;;;;;5098541;28;20478;-65
2021/03/22 01:37:45;;;;;;;20.90;3.53;;;5.70;99.90;;;;;;5092665;28;20512;-65
2021/03/22 01:40:23;;;;;;;18.50;2.93;;;5.70;99.90;;;;;;5093408;28;20446;-64
2021/03/22 01:43:02;;;;;;;16.87;3.67;;;5.70;99.90;;;;;;5093185;28;20544;-67
2021/03/22 01:45:29;;;;;;;20.97;4.23;;;5.80;99.90;;;;;;5106578;28;20998;-66
2021/03/22 01:47:56;;;;;;;20.00;3.53;;;5.90;99.90;;;;;;5100188;28;20537;-65
2021/03/22 01:50:25;;;;;;;18.23;3.67;;;5.90;99.90;;;;;;5106484;28;20543;-66
2021/03/22 01:52:53;;;;;;;25.20;3.80;;;5.90;99.90;;;;;;5111100;28;20485;-65
2021/03/22 01:55:23;;;;;;;21.20;3.30;;;6.00;99.90;;;;;;5102349;28;20499;-66
2021/03/22 01:57:49;;;;;;;14.20;3.30;;;6.00;99.90;;;;;;5100686;28;20472;-65
2021/03/22 02:00:26;;;;;;;22.93;3.83;;;5.90;99.90;;;;;;5104705;28;20504;-65
2021/03/22 02:02:57;;;;;;;32.80;4.87;;;5.90;99.90;;;;;;5111910;28;20480;-65
2021/03/22 02:05:27;;;;;;;18.43;3.27;;;5.90;99.90;;;;;;5110824;28;21023;-65
2021/03/22 02:07:59;;;;;;;18.40;3.83;;;6.00;99.90;;;;;;5111367;28;20477;-66
2021/03/22 02:10:26;;;;;;;21.47;3.67;;;6.00;99.90;;;;;;5113190;28;20538;-66
2021/03/22 02:12:52;;;;;;;19.07;3.20;;;6.00;99.90;;;;;;5099557;28;20446;-65
2021/03/22 02:15:19;;;;;;;14.97;3.37;;;5.80;99.90;;;;;;5092356;28;20493;-65
2021/03/22 02:17:59;;;;;;;13.63;3.20;;;5.90;99.90;;;;;;5103652;28;20539;-65
2021/03/22 02:21:07;;;;;;;22.77;4.10;;;5.90;99.90;;;;;;5111748;28;20544;-66
2021/03/22 02:24:14;;;;;;;18.70;3.07;;;5.90;99.90;;;;;;5112101;28;20514;-65
2021/03/22 02:27:20;;;;;;;19.47;5.00;;;6.00;99.90;;;;;;5107138;28;20536;-65
2021/03/22 02:30:10;;;;;;;21.33;3.60;;;5.90;99.90;;;;;;5092146;28;20539;-66
2021/03/22 02:33:11;;;;;;;13.47;3.10;;;5.70;99.90;;;;;;5092323;28;20461;-65
2021/03/22 02:35:43;;;;;;;16.10;4.03;;;5.80;99.90;;;;;;5070673;28;20454;-64
2021/03/22 02:38:15;;;;;;;19.80;4.43;;;5.80;99.90;;;;;;5111729;28;20539;-65
2021/03/22 02:40:46;;;;;;;18.03;3.60;;;5.80;99.90;;;;;;5105210;28;20451;-66
2021/03/22 02:43:13;;;;;;;26.70;4.03;;;5.80;99.90;;;;;;5094383;28;20496;-65
2021/03/22 02:45:41;;;;;;;18.73;4.53;;;5.70;99.90;;;;;;5091634;28;20499;-65
2021/03/22 02:48:09;;;;;;;19.80;4.67;;;5.70;99.90;;;;;;5102203;28;20480;-65
2021/03/22 02:50:37;;;;;;;15.43;3.70;;;5.70;99.90;;;;;;5112220;28;20480;-65
2021/03/22 02:53:24;;;;;;;22.27;3.83;;;5.80;99.90;;;;;;5109557;28;20444;-65
2021/03/22 02:56:00;;;;;;;16.47;5.90;;;5.70;99.90;;;;;;5112046;28;20532;-66
2021/03/22 02:58:32;;;;;;;20.37;4.10;;;5.70;99.90;;;;;;5111348;28;20471;-65
2021/03/22 03:01:05;;;;;;;16.20;3.17;;;5.80;99.90;;;;;;5112230;28;20455;-65
2021/03/22 03:03:34;;;;;;;19.10;3.57;;;5.80;99.90;;;;;;5111521;28;20532;-65
2021/03/22 03:06:01;;;;;;;15.10;3.30;;;5.80;99.90;;;;;;5111611;28;20462;-66
2021/03/22 03:08:33;;;;;;;18.73;3.60;;;5.80;99.90;;;;;;5108874;28;20957;-66
2021/03/22 03:10:59;;;;;;;22.93;3.53;;;5.90;99.90;;;;;;5091894;28;20528;-65
2021/03/22 03:13:26;;;;;;;21.47;5.27;;;5.80;99.90;;;;;;5091853;28;20445;-66
2021/03/22 03:15:53;;;;;;;15.40;3.37;;;5.80;99.90;;;;;;5104914;28;20512;-65
2021/03/22 03:18:19;;;;;;;19.57;3.70;;;5.80;99.90;;;;;;5112089;28;20488;-66
2021/03/22 03:20:46;;;;;;;18.73;4.80;;;5.90;99.90;;;;;;5099341;28;20856;-65
2021/03/22 03:23:13;;;;;;;21.77;4.50;;;5.90;99.90;;;;;;5099584;28;20540;-65
2021/03/22 03:25:40;;;;;;;20.73;3.90;;;5.90;99.90;;;;;;5110458;28;20542;-65
2021/03/22 03:28:09;;;;;;;17.60;4.40;;;6.00;99.90;;;;;;5105558;28;20536;-64
2021/03/22 03:30:38;;;;;;;13.33;4.60;;;6.00;99.90;;;;;;5109679;28;20449;-66
2021/03/22 03:33:05;;;;;;;25.53;4.97;;;6.00;99.90;;;;;;5112343;28;20455;-66
2021/03/22 03:35:34;;;;;;;20.83;3.93;;;5.90;99.90;;;;;;5103474;28;20569;-66
2021/03/22 03:38:02;;;;;;;14.80;4.40;;;6.00;99.90;;;;;;5091606;28;20963;-65
2021/03/22 03:40:30;;;;;;;19.63;5.33;;;5.90;99.90;;;;;;5104311;28;20441;-66
2021/03/22 03:42:58;;;;;;;16.57;3.57;;;5.90;99.90;;;;;;5107152;28;20450;-65
2021/03/22 03:45:27;;;;;;;18.57;4.17;;;5.90;99.90;;;;;;5093380;28;20510;-66
2021/03/22 03:47:54;;;;;;;22.67;4.80;;;5.90;99.90;;;;;;5111785;28;20537;-66
2021/03/22 03:50:24;;;;;;;21.33;4.60;;;6.00;99.90;;;;;;5111345;28;20456;-65
2021/03/22 03:52:51;;;;;;;15.77;5.17;;;5.90;99.90;;;;;;5112262;28;20607;-65
2021/03/22 03:55:20;;;;;;;16.80;4.23;;;5.90;99.90;;;;;;5111489;28;20559;-66
2021/03/22 03:57:47;;;;;;;17.10;4.27;;;6.00;99.90;;;;;;5110135;28;20447;-65
2021/03/22 04:00:22;;;;;;;17.17;4.37;;;6.00;99.90;;;;;;5111539;28;20451;-66
2021/03/22 04:02:48;;;;;;;16.60;4.70;;;6.00;99.90;;;;;;5092173;28;20839;-66
2021/03/22 04:05:15;;;;;;;19.30;4.00;;;5.90;99.90;;;;;;5103663;28;20540;-66
2021/03/22 04:07:41;;;;;;;23.60;5.93;;;5.90;99.90;;;;;;5115351;28;20860;-66
2021/03/22 04:10:08;;;;;;;20.17;4.97;;;5.90;99.90;;;;;;5106828;28;20922;-65
2021/03/22 04:12:35;;;;;;;15.07;4.10;;;6.00;99.90;;;;;;5097932;28;20547;-65
2021/03/22 04:15:03;;;;;;;20.87;4.60;;;5.90;99.90;;;;;;5108134;28;20492;-66
2021/03/22 04:17:30;;;;;;;17.77;4.87;;;5.80;99.90;;;;;;5099672;28;20448;-65
2021/03/22 04:19:56;;;;;;;17.73;5.07;;;5.90;99.90;;;;;;5115398;28;20521;-66
2021/03/22 04:22:23;;;;;;;17.30;4.67;;;5.90;99.90;;;;;;5111511;28;20449;-66
2021/03/22 04:24:49;;;;;;;23.67;4.30;;;5.80;99.90;;;;;;5094817;28;20972;-66
2021/03/22 04:27:15;;;;;;;17.83;4.20;;;5.90;99.90;;;;;;5096359;28;20451;-65
2021/03/22 04:29:42;;;;;;;26.90;5.33;;;5.90;99.90;;;;;;5110096;28;20556;-66
2021/03/22 04:32:09;;;;;;;20.03;5.20;;;6.00;99.90;;;;;;5114030;28;20528;-65
2021/03/22 04:34:36;;;;;;;22.40;5.27;;;5.90;99.90;;;;;;5115050;28;20494;-66
2021/03/22 04:37:03;;;;;;;16.60;5.37;;;6.00;99.90;;;;;;5114738;28;20451;-64
2021/03/22 04:39:29;;;;;;;28.93;6.70;;;6.00;99.90;;;;;;5094739;28;20468;-65
2021/03/22 04:41:56;;;;;;;16.83;5.33;;;5.90;99.90;;;;;;5094273;28;20456;-65
2021/03/22 04:44:22;;;;;;;19.03;6.13;;;5.90;99.90;;;;;;5112448;28;20543;-66
2021/03/22 04:46:48;;;;;;;27.00;5.30;;;5.90;99.90;;;;;;5111331;28;20537;-64
2021/03/22 04:49:15;;;;;;;21.33;5.73;;;5.90;99.90;;;;;;5114167;28;20455;-66
2021/03/22 04:51:42;;;;;;;16.60;6.13;;;5.80;99.90;;;;;;5114811;28;20441;-66
2021/03/22 04:54:08;;;;;;;23.43;7.50;;;5.80;99.90;;;;;;5110308;28;20484;-65
2021/03/22 04:56:35;;;;;;;16.03;5.33;;;5.60;99.90;;;;;;5093984;28;20799;-66
2021/03/22 04:59:02;;;;;;;19.80;6.10;;;5.50;99.90;;;;;;5100290;28;20441;-64
2021/03/22 05:01:29;;;;;;;25.23;6.13;;;5.50;99.90;;;;;;5114186;28;20447;-65
2021/03/22 05:03:55;;;;;;;31.30;6.10;;;5.40;99.90;;;;;;5109807;28;20497;-65
2021/03/22 05:06:21;;;;;;;27.37;7.30;;;5.40;99.90;;;;;;5093842;28;20541;-66
2021/03/22 05:08:49;;;;;;;18.27;6.40;;;5.40;99.90;;;;;;5096754;28;20448;-65
2021/03/22 05:11:17;;;;;;;19.27;7.90;;;5.40;99.90;;;;;;5114747;28;20440;-65
2021/03/22 05:13:44;;;;;;;21.03;6.07;;;5.40;99.90;;;;;;5100474;28;20477;-65
2021/03/22 05:16:12;;;;;;;23.20;5.70;;;5.40;99.90;;;;;;5105461;28;20456;-65
2021/03/22 05:18:38;;;;;;;26.03;6.67;;;5.40;99.90;;;;;;5093911;28;20466;-64
2021/03/22 05:21:06;;;;;;;23.43;6.33;;;5.30;99.90;;;;;;5098604;28;20530;-66
2021/03/22 05:23:34;;;;;;;25.17;7.53;;;5.20;99.90;;;;;;5105418;28;20574;-66
2021/03/22 05:26:02;;;;;;;22.13;6.60;;;5.20;99.90;;;;;;5095019;28;20515;-66
2021/03/22 05:28:31;;;;;;;17.02;6.22;;;5.20;99.90;;;;;;5113418;28;20438;-66
2021/03/22 05:30:58;;;;;;;21.03;7.37;;;5.30;99.90;;;;;;5094021;28;20283;-65
2021/03/22 05:33:25;;;;;;;19.23;5.33;;;5.40;99.90;;;;;;5100586;28;20452;-66
2021/03/22 05:35:53;;;;;;;25.60;7.43;;;5.40;99.90;;;;;;5112658;28;20445;-66
2021/03/22 05:38:20;;;;;;;29.20;8.43;;;5.40;99.90;;;;;;5112253;28;20535;-66
2021/03/22 05:40:49;;;;;;;23.73;7.50;;;5.30;99.90;;;;;;5113030;28;21070;-66
2021/03/22 05:43:35;;;;;;;28.57;8.87;;;5.30;99.90;;;;;;5098538;28;20447;-65
2021/03/22 05:46:08;;;;;;;24.40;7.63;;;5.20;99.90;;;;;;5112527;28;21030;-67
2021/03/22 05:48:59;;;;;;;13.27;2.30;;;5.30;99.90;;;;;;5100008;28;20530;-50
2021/03/22 05:51:34;;;;;;;14.90;4.17;;;8.00;99.90;;;;;;5094349;28;20457;-45
2021/03/22 05:54:10;;;;;;;18.37;5.63;;;9.50;99.90;;;;;;5101377;28;20485;-65
2021/03/22 05:56:45;;;;;;;26.17;7.87;;;8.90;99.90;;;;;;5113025;28;20449;-64
2021/03/22 05:59:30;;;;;;;19.70;5.23;;;7.90;99.90;;;;;;5104486;28;20597;-67
2021/03/22 06:02:11;;;;;;;25.87;7.23;;;7.10;99.90;;;;;;5113623;28;20445;-67
2021/03/22 06:04:41;;;;;;;27.07;7.10;;;6.80;99.90;;;;;;5107182;28;20525;-64
2021/03/22 06:07:12;;;;;;;21.07;6.77;;;6.70;99.90;;;;;;5099741;28;21054;-66
2021/03/22 06:09:45;;;;;;;25.00;6.83;;;6.40;99.90;;;;;;5104909;28;20461;-66
2021/03/22 06:12:34;;;;;;;19.67;7.00;;;6.30;99.90;;;;;;5098592;28;21036;-65
2021/03/22 06:15:14;;;;;;;16.60;6.10;;;6.10;99.90;;;;;;5105738;28;20488;-67
2021/03/22 06:17:47;;;;;;;25.00;6.83;;;6.10;99.90;;;;;;5101557;28;20455;-64
2021/03/22 06:20:18;;;;;;;27.77;6.30;;;6.00;99.90;;;;;;5093002;28;20639;-67
2021/03/22 06:22:45;;;;;;;22.10;7.30;;;5.90;99.90;;;;;;5097343;28;20561;-64
2021/03/22 06:25:17;;;;;;;26.03;6.90;;;6.00;99.90;;;;;;5112995;28;21005;-66
2021/03/22 06:27:43;;;;;;;23.73;5.70;;;6.00;99.90;;;;;;5111939;28;20454;-65
2021/03/22 06:30:18;;;;;;;19.30;6.50;;;6.00;99.90;;;;;;5113349;28;20842;-64
2021/03/22 06:32:48;;;;;;;21.43;6.30;;;6.00;99.90;;;;;;5112846;28;20942;-66
2021/03/22 06:35:20;;;;;;;23.70;7.27;;;6.00;99.90;;;;;;5112875;28;20491;-64
2021/03/22 06:37:47;;;;;;;28.43;6.07;;;6.00;99.90;;;;;;5112431;28;20550;-66
2021/03/22 06:40:16;;;;;;;24.33;5.80;;;5.90;99.90;;;;;;5112782;28;20544;-65
2021/03/22 06:42:44;;;;;;;14.97;5.70;;;5.90;99.90;;;;;;5112532;28;21035;-66
2021/03/22 06:45:31;;;;;;;22.87;6.90;;;5.80;99.90;;;;;;5107970;28;20544;-66
2021/03/22 06:48:29;;;;;;;17.10;5.57;;;5.80;99.90;;;;;;5111547;28;20434;-64
2021/03/22 06:51:15;;;;;;;18.67;6.03;;;5.90;99.90;;;;;;5009094;28;20550;-64
2021/03/22 06:53:44;;;;;;;14.50;5.70;;;6.00;99.90;;;;;;5096909;28;20985;-64
2021/03/22 06:56:16;;;;;;;17.70;7.03;;;6.00;99.90;;;;;;5108888;28;20551;-64
2021/03/22 06:58:44;;;;;;;27.30;6.53;;;6.10;99.90;;;;;;5093068;28;20193;-65
2021/03/22 07:01:19;;;;;;;17.57;5.53;;;6.10;99.90;;;;;;5103700;28;20453;-64
2021/03/22 07:03:46;;;;;;;20.20;6.30;;;6.10;99.90;;;;;;5120305;27;20544;-65
2021/03/22 07:06:18;;;;;;;21.83;6.30;;;6.10;99.90;;;;;;5106373;27;21407;-66
2021/03/22 07:08:44;;;;;;;17.47;6.67;;;6.20;99.90;;;;;;5104205;28;20447;-65
2021/03/22 07:11:14;;;;;;;16.60;5.60;;;6.20;99.90;;;;;;5105574;28;20828;-65
2021/03/22 07:13:51;;;;;;;16.40;5.20;;;6.40;99.90;;;;;;5100484;28;20517;-62
2021/03/22 07:16:20;;;;;;;22.83;5.60;;;6.60;99.90;;;;;;5115312;28;20455;-66
2021/03/22 07:19:15;;;;;;;19.63;7.60;;;6.50;99.90;;;;;;5107875;28;20488;-66
2021/03/22 07:21:53;;;;;;;13.70;5.23;;;6.50;99.90;;;;;;5110496;28;20444;-66
2021/03/22 07:24:25;;;;;;;17.63;5.90;;;6.80;99.90;;;;;;5098403;28;20452;-66
2021/03/22 07:27:05;;;;;;;21.17;6.10;;;7.00;99.90;;;;;;5092252;28;20875;-63
2021/03/22 07:29:48;;;;;;;17.80;6.70;;;7.20;99.90;;;;;;5100815;28;20904;-67
2021/03/22 07:32:33;;;;;;;17.77;6.03;;;7.50;99.90;;;;;;5110553;28;20469;-64
2021/03/22 07:35:15;;;;;;;17.27;5.60;;;7.70;99.90;;;;;;5107908;28;20483;-65
2021/03/22 07:37:53;;;;;;;11.90;5.17;;;7.80;99.90;;;;;;5110335;28;20437;-64
2021/03/22 07:40:25;;;;;;;16.93;5.57;;;7.80;99.90;;;;;;5111482;28;20594;-67
2021/03/22 07:43:10;;;;;;;14.47;6.23;;;7.70;99.90;;;;;;5113861;28;20484;-67
2021/03/22 07:45:58;;;;;;;13.53;4.97;;;7.80;99.90;;;;;;5104410;27;20544;-68
2021/03/22 07:48:45;;;;;;;11.67;4.07;;;7.70;99.90;;;;;;5105499;27;20476;-68
2021/03/22 07:51:35;;;;;;;19.77;4.60;;;7.60;99.90;;;;;;5099453;28;20937;-65
2021/03/22 07:54:10;;;;;;;18.20;4.63;;;7.40;99.90;;;;;;5110213;27;20994;-65
2021/03/22 07:56:47;;;;;;;13.83;4.33;;;7.50;99.90;;;;;;5109383;28;20449;-66
2021/03/22 07:59:23;;;;;;;17.13;4.77;;;7.40;99.90;;;;;;5113690;28;20471;-68
2021/03/22 08:02:04;;;;;;;19.90;4.50;;;7.40;99.90;;;;;;5112338;27;20452;-69
2021/03/22 08:04:44;;;;;;;14.23;4.93;;;7.60;99.90;;;;;;5107724;27;21037;-67
2021/03/22 08:07:25;;;;;;;14.80;3.97;;;7.40;99.90;;;;;;5109552;28;20831;-67
2021/03/22 08:10:20;;;;;;;13.50;4.87;;;7.40;99.90;;;;;;5113258;28;20477;-61
2021/03/22 08:12:59;;;;;;;15.77;4.57;;;7.50;99.90;;;;;;5111082;28;20452;-62
2021/03/22 08:15:32;;;;;;;19.20;4.63;;;7.40;99.90;;;;;;5109872;28;20556;-64
2021/03/22 08:18:09;;;;;;;14.10;5.10;;;7.50;99.90;;;;;;5111271;28;20511;-67
2021/03/22 08:20:53;;;;;;;20.10;5.30;;;7.50;99.90;;;;;;5099467;28;20472;-68
2021/03/22 08:23:27;;;;;;;17.23;4.77;;;7.70;99.90;;;;;;5109367;28;20457;-67
2021/03/22 08:25:57;;;;;;;16.43;4.80;;;7.50;99.90;;;;;;5103869;28;20489;-64
2021/03/22 08:28:29;;;;;;;15.10;3.73;;;7.30;99.90;;;;;;5110288;28;20545;-69
2021/03/22 08:31:05;;;;;;;11.43;3.60;;;7.30;99.90;;;;;;5124581;27;20515;-64
2021/03/22 08:33:37;;;;;;;15.83;4.20;;;7.40;99.90;;;;;;5114313;28;20856;-67
2021/03/22 08:36:24;;;;;;;16.27;4.40;;;7.40;99.90;;;;;;5099225;28;20489;-66
2021/03/22 08:38:56;;;;;;;14.27;4.10;;;7.60;99.90;;;;;;5106681;28;20528;-63
2021/03/22 08:41:29;;;;;;;17.50;4.43;;;7.70;99.90;;;;;;5102827;28;20535;-64
2021/03/22 08:44:02;;;;;;;10.40;3.63;;;7.80;99.90;;;;;;5093483;28;20948;-63
2021/03/22 08:46:35;;;;;;;10.80;3.47;;;8.10;99.90;;;;;;5102021;28;20464;-65
2021/03/22 08:49:13;;;;;;;12.30;3.57;;;8.00;99.90;;;;;;5107180;28;20460;-64
2021/03/22 08:51:40;;;;;;;12.20;3.47;;;8.00;99.90;;;;;;5113865;28;20532;-66
2021/03/22 08:54:21;;;;;;;9.20;2.70;;;7.90;99.90;;;;;;5094697;28;20482;-68
2021/03/22 08:56:53;;;;;;;9.90;3.00;;;7.80;99.90;;;;;;5093283;28;20516;-69
2021/03/22 08:59:22;;;;;;;8.87;2.60;;;8.00;99.90;;;;;;5113197;28;20953;-64
2021/03/22 09:01:48;;;;;;;9.33;2.70;;;8.10;99.90;;;;;;5113683;28;20518;-65
2021/03/22 09:04:30;;;;;;;11.13;3.30;;;8.00;99.90;;;;;;5105037;28;20483;-66
2021/03/22 09:07:05;;;;;;;9.63;3.20;;;8.30;99.90;;;;;;5113203;28;20880;-64
2021/03/22 09:09:34;;;;;;;10.33;2.80;;;8.60;99.90;;;;;;5106766;28;20456;-66
2021/03/22 09:12:08;;;;;;;13.00;3.90;;;8.70;99.90;;;;;;5130439;27;20476;-64
2021/03/22 09:14:42;;;;;;;11.20;3.97;;;8.60;99.90;;;;;;5113152;28;20476;-65
2021/03/22 09:17:31;;;;;;;10.13;3.80;;;8.70;99.90;;;;;;5102470;28;20864;-66
2021/03/22 09:20:14;;;;;;;11.20;4.00;;;8.80;99.90;;;;;;5112137;28;20524;-63
2021/03/22 09:22:55;;;;;;;9.70;2.90;;;9.20;99.90;;;;;;5111683;28;20460;-63
2021/03/22 09:25:59;;;;;;;8.40;3.87;;;9.70;99.90;;;;;;5099763;28;20859;-64
2021/03/22 09:29:00;;;;;;;10.07;2.40;;;9.60;99.90;;;;;;5092968;28;20446;-65
2021/03/22 09:31:42;;;;;;;9.57;2.63;;;9.70;99.90;;;;;;5100850;28;20457;-63
2021/03/22 09:34:53;;;;;;;7.23;1.77;;;9.60;99.90;;;;;;5111448;28;20484;-64
2021/03/22 09:37:51;;;;;;;10.43;2.47;;;9.40;99.90;;;;;;5098728;27;20511;-67
2021/03/22 09:40:56;;;;;;;8.20;2.00;;;9.50;99.90;;;;;;5111329;28;20441;-67
2021/03/22 09:43:45;;;;;;;10.40;1.90;;;9.40;99.90;;;;;;5111304;28;20985;-66
2021/03/22 09:46:28;;;;;;;8.43;2.30;;;9.60;99.90;;;;;;5105867;28;20524;-63
2021/03/22 09:49:28;;;;;;;9.23;2.40;;;9.20;99.90;;;;;;5104742;28;20446;-65
2021/03/22 09:52:14;;;;;;;9.40;2.40;;;9.20;99.90;;;;;;5091987;28;20453;-62
2021/03/22 09:54:43;;;;;;;7.47;2.20;;;9.20;99.90;;;;;;5108736;28;20523;-67
2021/03/22 09:57:44;;;;;;;9.10;2.40;;;9.20;99.90;;;;;;5112060;28;20448;-66
2021/03/22 10:00:53;;;;;;;10.40;2.90;;;9.00;99.90;;;;;;5110174;28;20445;-63
2021/03/22 10:03:32;;;;;;;13.87;2.70;;;8.80;99.90;;;;;;5107071;28;20808;-65
2021/03/22 10:06:01;;;;;;;9.23;2.67;;;9.00;99.90;;;;;;5102291;28;20455;-64
2021/03/22 10:08:31;;;;;;;10.10;2.90;;;9.10;99.90;;;;;;5106711;28;20531;-65
2021/03/22 10:11:00;;;;;;;16.23;2.90;;;9.30;99.90;;;;;;5108188;27;20539;-65
2021/03/22 10:13:31;;;;;;;9.10;2.17;;;9.30;99.90;;;;;;5121249;27;20549;-65
2021/03/22 10:16:01;;;;;;;12.37;3.00;;;9.40;99.90;;;;;;5090983;28;20515;-66
2021/03/22 10:18:36;;;;;;;10.27;2.87;;;9.30;99.90;;;;;;5095145;28;20548;-66
2021/03/22 10:21:08;;;;;;;12.50;3.00;;;9.30;99.90;;;;;;5110664;27;20455;-66
2021/03/22 10:23:42;;;;;;;9.60;2.20;;;9.40;99.90;;;;;;5107224;27;20448;-68
2021/03/22 10:26:13;;;;;;;17.47;2.40;;;9.40;99.90;;;;;;5115303;27;20455;-66
2021/03/22 10:28:41;;;;;;;8.70;2.73;;;9.40;99.90;;;;;;5113208;27;20472;-64
2021/03/22 10:31:19;;;;;;;7.63;1.83;;;9.30;99.90;;;;;;5120729;27;20819;-61
2021/03/22 10:33:51;;;;;;;10.77;2.70;;;9.20;99.90;;;;;;5098059;28;20480;-63
2021/03/22 10:36:30;;;;;;;10.70;3.03;;;9.20;99.90;;;;;;5105937;28;20538;-66
2021/03/22 10:38:57;;;;;;;9.20;2.10;;;9.30;99.90;;;;;;5105864;28;20541;-65
2021/03/22 10:41:31;;;;;;;7.70;2.10;;;9.50;99.90;;;;;;5111427;28;20962;-63
2021/03/22 10:44:01;;;;;;;9.37;2.17;;;9.30;99.90;;;;;;5111802;28;20535;-67
2021/03/22 10:46:31;;;;;;;9.00;1.43;;;9.60;99.90;;;;;;5110654;28;20445;-64
2021/03/22 10:49:09;;;;;;;8.13;1.30;;;9.80;99.90;;;;;;5111605;28;20449;-64
2021/03/22 10:51:42;;;;;;;6.50;1.00;;;9.90;99.90;;;;;;5091511;28;20442;-72
2021/03/22 10:54:12;;;;;;;7.70;1.30;;;9.80;99.90;;;;;;5106964;28;20464;-63
2021/03/22 10:56:47;;;;;;;7.70;1.30;;;9.80;99.90;;;;;;5103064;28;20449;-64
2021/03/22 10:59:18;;;;;;;8.40;1.70;;;9.70;99.90;;;;;;5111388;28;20456;-66
2021/03/22 11:01:45;;;;;;;6.90;1.70;;;9.90;99.90;;;;;;5109732;28;20449;-63
2021/03/22 11:04:22;;;;;;;6.40;1.40;;;10.00;99.90;;;;;;5112186;28;20490;-65
2021/03/22 11:06:50;;;;;;;6.73;1.43;;;10.00;99.90;;;;;;5099666;28;20503;-65
2021/03/22 11:09:20;;;;;;;7.13;1.63;;;10.10;99.90;;;;;;5108955;28;20550;-66
2021/03/22 11:11:47;;;;;;;6.70;1.40;;;9.80;99.90;;;;;;5128628;28;20476;-67
2021/03/22 11:14:17;;;;;;;7.33;1.20;;;9.90;99.90;;;;;;5133037;27;20440;-66
2021/03/22 11:16:44;;;;;;;6.63;1.30;;;9.90;99.90;;;;;;5114807;27;20536;-56
2021/03/22 11:19:24;;;;;;;11.53;1.70;;;11.80;99.90;;;;;;5110698;28;20528;-58
2021/03/22 11:21:51;;;;;;;9.50;1.50;;;13.20;99.90;;;;;;5095879;28;20441;-49
2021/03/22 11:24:31;;;;;;;6.60;1.13;;;13.30;99.90;;;;;;5102277;28;20441;-53
2021/03/22 11:26:59;;;;;;;7.93;1.23;;;13.80;99.90;;;;;;5110693;28;20943;-52
2021/03/22 11:29:27;;;;;;;4.13;1.20;;;14.10;99.90;;;;;;5106864;28;20451;-53
2021/03/22 11:31:59;;;;;;;5.70;1.37;;;14.10;99.90;;;;;;5113475;28;20457;-50
2021/03/22 11:34:31;;;;;;;4.10;1.10;;;13.90;99.90;;;;;;5105490;28;20517;-55
2021/03/22 11:37:04;;;;;;;6.03;1.20;;;13.80;99.90;;;;;;5102290;28;20477;-52
2021/03/22 11:39:34;;;;;;;7.97;1.80;;;13.80;99.90;;;;;;5114451;28;20820;-52
2021/03/22 11:42:25;;;;;;;6.67;1.70;;;13.80;99.90;;;;;;5114619;28;20514;-53
2021/03/22 11:44:53;;;;;;;6.23;1.60;;;13.80;99.90;;;;;;5111407;28;20452;-52
2021/03/22 11:47:43;;;;;;;4.40;1.43;;;13.70;99.90;;;;;;5113771;28;20445;-57
2021/03/22 11:50:33;;;;;;;6.20;1.60;;;14.00;99.90;;;;;;5115328;28;20449;-54
2021/03/22 11:53:19;;;;;;;5.33;1.30;;;14.30;99.90;;;;;;5109462;28;20951;-53
2021/03/22 11:55:48;;;;;;;5.07;1.73;;;14.40;99.90;;;;;;5095201;28;20466;-68
2021/03/22 11:58:36;;;;;;;5.17;1.97;;;14.20;99.90;;;;;;5108573;28;20450;-67
2021/03/22 12:01:22;;;;;;;5.20;1.63;;;13.50;99.90;;;;;;5096936;28;20449;-65
2021/03/22 12:03:51;;;;;;;6.57;1.90;;;13.40;99.90;;;;;;5115576;28;20442;-66
2021/03/22 12:06:20;;;;;;;5.83;1.73;;;13.30;99.90;;;;;;5113796;28;20461;-66
2021/03/22 12:08:48;;;;;;;4.33;1.47;;;12.80;99.90;;;;;;5114929;28;20493;-66
2021/03/22 12:11:17;;;;;;;5.97;1.70;;;12.50;99.90;;;;;;5107919;27;20483;-68
2021/03/22 12:13:44;;;;;;;5.17;1.50;;;12.30;99.90;;;;;;5114566;28;20620;-61
2021/03/22 12:16:20;;;;;;;6.30;1.53;;;11.70;99.90;;;;;;5114540;28;20516;-61
2021/03/22 12:18:47;;;;;;;7.23;1.77;;;10.80;99.90;;;;;;5134619;27;20501;-60
2021/03/22 12:21:14;;;;;;;6.57;1.97;;;10.60;99.90;;;;;;5135464;27;20447;-62
2021/03/22 12:23:42;;;;;;;5.50;2.50;;;10.50;99.90;;;;;;5129963;27;20450;-60
2021/03/22 12:26:12;;;;;;;4.80;1.57;;;10.40;99.90;;;;;;5107949;28;20449;-61
2021/03/22 12:28:53;;;;;;;7.97;1.37;;;10.30;99.90;;;;;;5103350;28;20536;-63
2021/03/22 12:31:22;;;;;;;5.03;1.40;;;10.00;99.90;;;;;;5104514;28;20462;-59
2021/03/22 12:33:48;;;;;;;4.83;1.40;;;10.10;99.90;;;;;;5102724;28;20482;-60
2021/03/22 12:36:15;;;;;;;7.43;1.10;;;10.20;99.90;;;;;;5113564;28;20484;-60
2021/03/22 12:38:41;;;;;;;4.93;1.37;;;10.30;99.90;;;;;;5113107;28;20433;-62
2021/03/22 12:41:08;;;;;;;5.43;1.33;;;10.20;99.90;;;;;;5114200;28;20456;-60
2021/03/22 12:43:35;;;;;;;7.13;1.60;;;10.20;99.90;;;;;;5113859;28;20476;-61
2021/03/22 12:46:03;;;;;;;5.33;1.37;;;10.30;99.90;;;;;;5108339;28;20465;-62
2021/03/22 12:48:30;;;;;;;4.37;1.33;;;10.30;99.90;;;;;;5113770;28;20534;-61
2021/03/22 12:50:56;;;;;;;6.23;1.80;;;10.10;99.90;;;;;;5113965;28;20512;-60
2021/03/22 12:53:23;;;;;;;11.53;1.47;;;10.20;99.90;;;;;;5113245;28;20449;-60
2021/03/22 12:55:50;;;;;;;4.73;1.40;;;10.30;99.90;;;;;;5113923;28;20580;-62
2021/03/22 12:58:19;;;;;;;6.63;1.70;;;10.20;99.90;;;;;;5113630;28;20467;-60
2021/03/22 13:00:47;;;;;;;5.00;1.33;;;10.30;99.90;;;;;;5113449;28;20452;-63
2021/03/22 13:03:16;;;;;;;6.73;1.70;;;10.20;99.90;;;;;;5113597;28;20524;-61
2021/03/22 13:05:44;;;;;;;5.80;1.30;;;10.50;99.90;;;;;;5113482;28;20449;-62
2021/03/22 13:08:10;;;;;;;6.40;1.53;;;10.60;99.90;;;;;;5109749;27;20993;-61
2021/03/22 13:10:37;;;;;;;4.37;1.30;;;10.70;99.90;;;;;;5113707;27;20746;-63
2021/03/22 13:13:05;;;;;;;6.00;1.20;;;11.10;99.90;;;;;;5109034;28;20538;-68
2021/03/22 13:15:36;;;;;;;7.37;1.40;;;11.40;99.90;;;;;;5108823;28;20485;-66
2021/03/22 13:18:10;;;;;;;4.20;1.30;;;11.50;99.90;;;;;;5108543;28;20446;-68